Port Au Choix, Canada
Current Conditions -  °F | °C
As of 8:00 AM on Friday 24 Oct 2014 (Local Time) from CWDH Reporting Station
Clear Clear  
Wind Chill: 27°   Ceiling: Unl
Heat Index: 33°   Visibility: 9mi
Dew Point: 20°   Wind: 6mph
Humidity: 59%   Direction: 70°ENE
Pressure: 29.99"   Gusts: NA
Location:  50.72°N, 57.37°W
Report Text: CWDH 241000Z AUTO 07005KT 9SM NSC 00/M07 A2999 RMK SLP157 T00031068 WSI/SWOB
Loading
Personal Weather Stations






























Interactive Weather Map
Tropical Storm Tracking
New forecast layout! Learn more

10-Day Weather Forecast

Advertisements
Track Severe Weather on mobile